createdAt,value
2022-11-16T00:02:13.072Z,21.70
2022-11-16T00:04:40.343Z,21.90
2022-11-16T00:07:07.628Z,21.27
2022-11-16T00:09:34.756Z,21.07
2022-11-16T00:12:06.144Z,21.27
2022-11-16T00:14:35.872Z,22.43
2022-11-16T00:17:03.533Z,20.70
2022-11-16T00:19:31.209Z,21.37
2022-11-16T00:21:58.519Z,24.57
2022-11-16T00:24:25.449Z,21.40
2022-11-16T00:26:55.373Z,21.00
2022-11-16T00:29:27.119Z,24.33
2022-11-16T00:31:55.744Z,22.60
2022-11-16T00:34:24.323Z,22.90
2022-11-16T00:36:51.937Z,21.00
2022-11-16T00:39:19.969Z,22.90
2022-11-16T00:41:48.565Z,22.83
2022-11-16T00:44:16.185Z,21.70
2022-11-16T00:46:43.232Z,22.67
2022-11-16T00:49:11.049Z,23.43
2022-11-16T00:51:38.671Z,22.07
2022-11-16T00:54:08.213Z,22.37
2022-11-16T00:56:36.654Z,20.23
2022-11-16T00:59:04.501Z,20.00
2022-11-16T01:01:31.690Z,20.13
2022-11-16T01:03:59.110Z,19.70
2022-11-16T01:06:26.122Z,17.63
2022-11-16T01:08:53.228Z,19.73
2022-11-16T01:11:39.249Z,18.80
2022-11-16T01:14:09.157Z,19.43
2022-11-16T01:16:36.550Z,18.27
2022-11-16T01:19:04.762Z,19.67
2022-11-16T01:21:31.964Z,17.20
2022-11-16T01:23:59.019Z,17.30
2022-11-16T01:26:26.250Z,17.17
2022-11-16T01:28:53.449Z,16.53
2022-11-16T01:31:20.505Z,18.43
2022-11-16T01:33:47.415Z,19.47
2022-11-16T01:36:15.261Z,16.93
2022-11-16T01:38:46.770Z,16.63
2022-11-16T01:41:16.719Z,18.13
2022-11-16T01:44:06.866Z,18.33
2022-11-16T01:46:34.069Z,16.47
2022-11-16T01:49:14.584Z,18.20
2022-11-16T01:51:47.949Z,16.13
2022-11-16T01:54:16.669Z,16.60
2022-11-16T01:56:48.198Z,18.10
2022-11-16T01:59:16.444Z,17.27
2022-11-16T02:01:43.969Z,18.10
2022-11-16T02:04:12.453Z,18.43
2022-11-16T02:06:47.900Z,15.70
2022-11-16T02:09:54.915Z,18.00
2022-11-16T02:12:52.003Z,16.47
2022-11-16T02:16:14.774Z,15.90
2022-11-16T02:19:15.215Z,16.20
2022-11-16T02:21:54.009Z,16.63
2022-11-16T02:24:42.408Z,17.00
2022-11-16T02:28:05.287Z,17.33
2022-11-16T02:30:32.877Z,16.30
2022-11-16T02:33:13.973Z,16.77
2022-11-16T02:35:50.611Z,17.40
2022-11-16T02:38:30.074Z,17.97
2022-11-16T02:41:09.514Z,19.17
2022-11-16T02:43:44.084Z,17.00
2022-11-16T02:46:23.052Z,18.03
2022-11-16T02:48:56.418Z,15.43
2022-11-16T02:51:25.867Z,15.27
2022-11-16T02:54:04.973Z,16.37
2022-11-16T02:56:46.572Z,17.83
2022-11-16T02:59:17.652Z,16.80
2022-11-16T03:02:20.218Z,16.00
2022-11-16T03:05:18.433Z,15.47
2022-11-16T03:08:35.782Z,16.13
2022-11-16T03:11:26.162Z,16.80
2022-11-16T03:13:59.114Z,14.73
2022-11-16T03:16:46.613Z,17.50
2022-11-16T03:19:21.127Z,16.60
2022-11-16T03:21:58.087Z,16.17
2022-11-16T03:24:25.927Z,16.70
2022-11-16T03:27:17.727Z,17.00
2022-11-16T03:29:54.698Z,17.27
2022-11-16T03:32:45.925Z,16.07
2022-11-16T03:35:20.380Z,16.70
2022-11-16T03:37:50.732Z,16.33
2022-11-16T03:40:19.612Z,16.10
2022-11-16T03:42:49.772Z,16.37
2022-11-16T03:45:19.219Z,17.60
2022-11-16T03:47:46.456Z,16.70
2022-11-16T03:50:14.487Z,16.07
2022-11-16T03:52:41.725Z,14.60
2022-11-16T03:55:09.937Z,13.90
2022-11-16T03:57:36.917Z,15.40
2022-11-16T04:00:06.518Z,13.27
2022-11-16T04:02:33.607Z,13.90
2022-11-16T04:05:18.891Z,12.60
2022-11-16T04:08:07.218Z,13.00
2022-11-16T04:10:53.158Z,14.60
2022-11-16T04:13:47.792Z,12.07
2022-11-16T04:16:33.552Z,14.53
2022-11-16T04:19:19.488Z,13.57
2022-11-16T04:22:17.636Z,13.43
2022-11-16T04:24:51.200Z,12.90
2022-11-16T04:27:48.018Z,12.70
2022-11-16T04:30:15.319Z,13.93
2022-11-16T04:33:01.128Z,14.03
2022-11-16T04:35:46.393Z,14.77
2022-11-16T04:38:14.458Z,12.93
2022-11-16T04:40:41.493Z,14.20
2022-11-16T04:43:08.847Z,14.00
2022-11-16T04:45:54.978Z,13.67
2022-11-16T04:48:22.051Z,13.80
2022-11-16T04:50:49.212Z,12.20
2022-11-16T04:53:16.352Z,13.70
2022-11-16T04:55:43.260Z,15.00
2022-11-16T04:58:10.492Z,13.97
2022-11-16T05:00:37.359Z,15.03
2022-11-16T05:03:06.443Z,12.70
2022-11-16T05:05:33.374Z,13.47
2022-11-16T05:08:00.386Z,14.53
2022-11-16T05:10:27.470Z,13.33
2022-11-16T05:12:54.402Z,13.60
2022-11-16T05:15:21.513Z,14.20
2022-11-16T05:17:48.570Z,13.60
2022-11-16T05:20:34.431Z,12.57
2022-11-16T05:23:01.410Z,12.67
2022-11-16T05:25:31.358Z,13.57
2022-11-16T05:28:03.203Z,13.50
2022-11-16T05:30:30.123Z,13.60
2022-11-16T05:32:57.639Z,13.23
2022-11-16T05:35:24.549Z,13.57
2022-11-16T05:37:51.510Z,14.57
2022-11-16T05:40:18.429Z,13.13
2022-11-16T05:42:45.324Z,16.40
2022-11-16T05:45:14.917Z,15.27
2022-11-16T05:47:45.689Z,14.77
2022-11-16T05:50:12.643Z,15.70
2022-11-16T05:52:39.566Z,15.13
2022-11-16T05:55:07.177Z,14.47
2022-11-16T05:57:34.174Z,15.83
2022-11-16T06:00:01.140Z,15.27
2022-11-16T06:02:28.129Z,15.90
2022-11-16T06:04:55.130Z,14.50
2022-11-16T06:07:22.176Z,14.73
2022-11-16T06:09:49.147Z,15.47
2022-11-16T06:12:16.593Z,16.27
2022-11-16T06:14:43.629Z,15.50
2022-11-16T06:17:14.806Z,14.20
2022-11-16T06:19:41.874Z,14.33
2022-11-16T06:22:09.375Z,14.10
2022-11-16T06:24:36.412Z,13.90
2022-11-16T06:27:03.540Z,14.43
2022-11-16T06:29:30.637Z,15.77
2022-11-16T06:31:57.594Z,14.30
2022-11-16T06:34:24.904Z,15.03
2022-11-16T06:36:51.791Z,14.93
2022-11-16T06:39:18.759Z,15.93
2022-11-16T06:41:45.748Z,15.37
2022-11-16T06:44:12.724Z,15.50
2022-11-16T06:46:39.683Z,15.50
2022-11-16T06:49:06.730Z,15.90
2022-11-16T06:51:33.647Z,15.60
2022-11-16T06:54:00.674Z,15.70
2022-11-16T06:56:27.868Z,16.37
2022-11-16T06:58:57.540Z,15.07
2022-11-16T07:01:24.543Z,14.57
2022-11-16T07:03:51.528Z,17.40
2022-11-16T07:06:18.749Z,15.43
2022-11-16T07:08:45.785Z,15.90
2022-11-16T07:11:12.819Z,16.20
2022-11-16T07:13:39.805Z,15.70
2022-11-16T07:16:09.316Z,16.00
2022-11-16T07:18:39.279Z,18.10
2022-11-16T07:21:12.740Z,18.23
2022-11-16T07:23:40.665Z,17.10
2022-11-16T07:26:09.770Z,17.73
2022-11-16T07:28:37.182Z,17.40
2022-11-16T07:31:10.804Z,17.13
2022-11-16T07:33:38.940Z,17.97
2022-11-16T07:36:10.136Z,18.23
2022-11-16T07:38:37.115Z,19.10
2022-11-16T07:41:17.404Z,18.33
2022-11-16T07:43:51.499Z,18.07
2022-11-16T07:49:15.106Z,18.80
2022-11-16T07:51:42.225Z,19.50
2022-11-16T07:54:13.519Z,17.70
2022-11-16T07:56:41.472Z,17.23
2022-11-16T07:59:08.880Z,17.10
2022-11-16T08:01:35.936Z,17.33
2022-11-16T08:04:03.182Z,17.10
2022-11-16T08:06:32.278Z,16.43
2022-11-16T08:08:59.704Z,18.70
2022-11-16T08:11:27.232Z,19.93
2022-11-16T08:13:54.137Z,32.50
2022-11-16T08:16:23.358Z,24.67
2022-11-16T08:18:50.755Z,20.80
2022-11-16T08:21:19.592Z,17.83
2022-11-16T08:23:47.458Z,18.27
2022-11-16T08:26:18.292Z,20.70
2022-11-16T08:28:48.029Z,20.70
2022-11-16T08:31:22.715Z,23.73
2022-11-16T08:33:50.102Z,24.47
2022-11-16T08:36:19.688Z,29.77
2022-11-16T08:38:49.026Z,19.30
2022-11-16T08:41:17.410Z,18.17
2022-11-16T08:43:47.184Z,17.00
2022-11-16T08:46:15.678Z,17.20
2022-11-16T08:48:42.817Z,22.00
2022-11-16T08:51:18.851Z,21.97
2022-11-16T08:53:48.578Z,20.97
2022-11-16T08:56:18.783Z,16.53
2022-11-16T08:58:47.889Z,16.00
2022-11-16T09:01:20.685Z,16.33
2022-11-16T09:03:48.123Z,15.53
2022-11-16T09:06:16.500Z,13.50
2022-11-16T09:08:46.268Z,13.90
2022-11-16T09:11:17.256Z,14.93
2022-11-16T09:13:46.264Z,14.90
2022-11-16T09:16:16.871Z,14.77
2022-11-16T09:18:47.297Z,12.37
2022-11-16T09:21:26.889Z,13.67
2022-11-16T09:23:55.789Z,13.13
2022-11-16T09:26:24.354Z,13.40
2022-11-16T09:28:58.577Z,13.23
2022-11-16T09:31:32.019Z,12.17
2022-11-16T09:33:59.289Z,12.67
2022-11-16T09:36:29.092Z,12.93
2022-11-16T09:42:09.079Z,13.17
2022-11-16T09:45:08.648Z,15.20
2022-11-16T09:47:57.680Z,14.23
2022-11-16T09:50:43.550Z,13.43
2022-11-16T09:53:27.413Z,13.37
2022-11-16T09:56:25.645Z,12.30
2022-11-16T09:59:37.579Z,12.17
2022-11-16T10:02:34.092Z,13.17
2022-11-16T10:05:37.132Z,13.87
2022-11-16T10:08:41.522Z,12.27
2022-11-16T10:12:09.722Z,12.63
2022-11-16T10:14:54.823Z,12.57
2022-11-16T10:17:37.810Z,12.73
2022-11-16T10:20:41.865Z,16.70
2022-11-16T10:23:42.043Z,14.67
2022-11-16T10:26:41.378Z,14.17
2022-11-16T10:29:48.595Z,13.33
2022-11-16T10:32:30.049Z,14.03
2022-11-16T10:35:03.840Z,13.93
2022-11-16T10:37:36.904Z,11.97
2022-11-16T10:40:25.594Z,11.33
2022-11-16T10:43:13.699Z,13.13
2022-11-16T10:46:05.599Z,10.20
2022-11-16T10:49:14.443Z,9.90
2022-11-16T10:51:41.470Z,10.00
2022-11-16T10:54:16.754Z,9.47
2022-11-16T10:57:04.809Z,9.87
2022-11-16T10:59:44.672Z,8.33
2022-11-16T11:02:36.731Z,7.80
2022-11-16T11:05:06.516Z,9.60
2022-11-16T11:07:38.244Z,12.17
2022-11-16T11:10:20.835Z,9.60
2022-11-16T11:13:10.661Z,8.87
2022-11-16T11:15:41.012Z,9.30
2022-11-16T11:18:30.081Z,9.63
2022-11-16T11:21:28.454Z,8.43
2022-11-16T11:24:10.550Z,9.93
2022-11-16T11:26:49.907Z,9.33
2022-11-16T11:29:26.906Z,9.80
2022-11-16T11:32:05.140Z,10.27
2022-11-16T11:34:49.426Z,9.63
2022-11-16T11:37:32.725Z,9.83
2022-11-16T11:40:27.008Z,8.60
2022-11-16T11:43:06.167Z,9.50
2022-11-16T11:45:41.975Z,9.03
2022-11-16T11:48:27.143Z,9.80
2022-11-16T11:51:23.333Z,8.70
2022-11-16T11:53:58.277Z,9.27
2022-11-16T11:56:28.140Z,9.90
2022-11-16T11:58:55.974Z,8.77
2022-11-16T12:01:54.100Z,9.40
2022-11-16T12:04:45.809Z,10.40
2022-11-16T12:07:35.155Z,9.30
2022-11-16T12:10:08.034Z,11.00
2022-11-16T12:12:53.183Z,14.37
2022-11-16T12:16:10.721Z,12.30
2022-11-16T12:19:17.897Z,10.60
2022-11-16T12:22:14.707Z,18.57
2022-11-16T12:24:59.548Z,16.03
2022-11-16T12:27:49.458Z,13.80
2022-11-16T12:30:21.744Z,12.47
2022-11-16T12:33:22.730Z,12.93
2022-11-16T12:36:08.369Z,12.20
2022-11-16T12:38:46.717Z,11.37
2022-11-16T12:41:26.669Z,11.03
2022-11-16T12:44:13.067Z,12.47
2022-11-16T12:47:01.360Z,11.83
2022-11-16T12:49:49.364Z,11.47
2022-11-16T12:52:49.889Z,11.27
2022-11-16T12:55:45.375Z,11.00
2022-11-16T12:58:39.942Z,12.20
2022-11-16T13:01:33.931Z,12.33
2022-11-16T13:04:36.973Z,12.00
2022-11-16T13:07:14.588Z,12.40
2022-11-16T13:09:48.275Z,11.50
2022-11-16T13:12:23.657Z,15.00
2022-11-16T13:14:54.618Z,11.93
2022-11-16T13:17:41.937Z,12.03
2022-11-16T13:20:34.426Z,11.83
2022-11-16T13:23:31.333Z,11.23
2022-11-16T13:26:10.468Z,10.57
2022-11-16T13:28:51.415Z,11.57
2022-11-16T13:31:33.142Z,11.30
2022-11-16T13:34:07.523Z,12.23
2022-11-16T13:36:37.458Z,11.50
2022-11-16T13:39:07.842Z,12.90
2022-11-16T13:41:44.678Z,13.33
2022-11-16T13:44:26.428Z,11.33
2022-11-16T13:47:04.493Z,11.10
2022-11-16T13:49:51.965Z,11.77
2022-11-16T13:52:24.104Z,12.07
2022-11-16T13:54:55.941Z,12.77
2022-11-16T13:57:34.941Z,13.00
2022-11-16T14:00:01.831Z,12.40
2022-11-16T14:02:33.014Z,11.70
2022-11-16T14:05:14.013Z,11.93
2022-11-16T14:07:50.836Z,11.20
2022-11-16T14:10:38.653Z,13.53
2022-11-16T14:13:53.688Z,11.10
2022-11-16T14:16:21.629Z,12.20
2022-11-16T14:18:56.698Z,11.90
2022-11-16T14:22:08.061Z,12.23
2022-11-16T14:24:52.108Z,10.73
2022-11-16T14:27:59.533Z,13.53
2022-11-16T14:30:36.578Z,10.93
2022-11-16T14:33:03.858Z,12.97
2022-11-16T14:35:39.815Z,12.93
2022-11-16T14:38:18.393Z,11.60
2022-11-16T14:40:57.804Z,12.40
2022-11-16T14:43:33.609Z,10.97
2022-11-16T14:46:09.443Z,11.47
2022-11-16T14:48:45.758Z,10.57
2022-11-16T14:51:29.647Z,10.73
2022-11-16T14:54:15.336Z,10.20
2022-11-16T14:57:07.988Z,11.63
2022-11-16T14:59:34.945Z,12.57
2022-11-16T15:02:16.766Z,12.53
2022-11-16T15:04:43.872Z,12.40
2022-11-16T15:07:14.672Z,12.57
2022-11-16T15:09:48.998Z,11.40
2022-11-16T15:12:41.967Z,12.33
2022-11-16T15:15:17.866Z,12.80
2022-11-16T15:18:07.726Z,12.60
2022-11-16T15:20:38.557Z,12.73
2022-11-16T15:23:15.353Z,12.43
2022-11-16T15:25:45.219Z,12.10
2022-11-16T15:28:25.258Z,13.13
2022-11-16T15:31:01.094Z,13.13
2022-11-16T15:33:42.390Z,12.93
2022-11-16T15:36:32.369Z,13.43
2022-11-16T15:39:02.673Z,13.10
2022-11-16T15:41:29.798Z,14.33
2022-11-16T15:44:14.129Z,12.80
2022-11-16T15:46:46.132Z,14.00
2022-11-16T15:49:30.443Z,13.43
2022-11-16T15:51:59.617Z,14.00
2022-11-16T15:54:51.231Z,11.60
2022-11-16T15:57:20.746Z,13.67
2022-11-16T16:00:00.181Z,14.73
2022-11-16T16:02:30.568Z,15.53
2022-11-16T16:04:57.998Z,17.50
2022-11-16T16:07:42.738Z,16.20
2022-11-16T16:10:24.018Z,17.77
2022-11-16T16:13:02.433Z,14.87
2022-11-16T16:15:36.799Z,15.30
2022-11-16T16:18:37.174Z,15.47
2022-11-16T16:21:04.348Z,14.60
2022-11-16T16:23:31.337Z,14.50
2022-11-16T16:26:03.686Z,15.20
2022-11-16T16:28:30.594Z,15.60
2022-11-16T16:30:57.578Z,15.70
2022-11-16T16:33:28.836Z,14.27
2022-11-16T16:35:56.359Z,16.30
2022-11-16T16:38:23.345Z,14.03
2022-11-16T16:40:50.429Z,15.17
2022-11-16T16:43:17.373Z,17.90
2022-11-16T16:45:45.607Z,17.77
2022-11-16T16:48:13.066Z,16.83
2022-11-16T16:50:40.517Z,17.40
2022-11-16T16:53:10.217Z,17.37
2022-11-16T16:55:37.795Z,17.23
2022-11-16T16:58:05.791Z,16.95
2022-11-16T17:00:33.263Z,15.50
2022-11-16T17:03:00.261Z,17.00
2022-11-16T17:05:27.407Z,15.70
2022-11-16T17:07:57.598Z,14.57
2022-11-16T17:10:25.103Z,13.93
2022-11-16T17:12:56.488Z,14.50
2022-11-16T17:15:24.664Z,14.00
2022-11-16T17:17:51.572Z,13.73
2022-11-16T17:20:18.699Z,14.17
2022-11-16T17:22:46.129Z,14.10
2022-11-16T17:25:13.589Z,12.87
2022-11-16T17:27:40.614Z,13.43
2022-11-16T17:30:09.078Z,14.17
2022-11-16T17:32:36.090Z,15.87
2022-11-16T17:35:03.204Z,14.70
2022-11-16T17:37:41.068Z,15.13
2022-11-16T17:40:18.047Z,15.37
2022-11-16T17:43:02.120Z,17.10
2022-11-16T17:46:24.424Z,17.10
2022-11-16T17:49:29.465Z,17.27
2022-11-16T17:53:22.349Z,15.57
2022-11-16T17:56:14.760Z,17.43
2022-11-16T17:59:13.406Z,17.73
2022-11-16T18:01:41.490Z,19.03
2022-11-16T18:04:09.775Z,17.10
2022-11-16T18:06:37.229Z,18.80
2022-11-16T18:09:04.615Z,15.97
2022-11-16T18:11:31.730Z,17.10
2022-11-16T18:14:01.149Z,16.00
2022-11-16T18:16:31.904Z,16.00
2022-11-16T18:19:02.181Z,18.17
2022-11-16T18:21:36.539Z,15.73
2022-11-16T18:24:03.759Z,15.77
2022-11-16T18:26:30.647Z,14.53
2022-11-16T18:28:57.693Z,14.57
2022-11-16T18:31:25.571Z,12.33
2022-11-16T18:33:52.743Z,12.23
2022-11-16T18:36:21.765Z,13.80
2022-11-16T18:38:49.908Z,11.40
2022-11-16T18:41:24.377Z,11.57
2022-11-16T18:43:56.195Z,11.20
2022-11-16T18:46:32.934Z,11.00
2022-11-16T18:49:00.797Z,11.47
2022-11-16T18:51:30.633Z,11.20
2022-11-16T18:53:57.612Z,12.10
2022-11-16T18:56:25.425Z,12.67
2022-11-16T18:58:53.447Z,12.97
2022-11-16T19:01:26.922Z,12.40
2022-11-16T19:03:57.334Z,11.70
2022-11-16T19:06:24.775Z,11.90
2022-11-16T19:08:59.509Z,11.83
2022-11-16T19:11:28.843Z,11.67
2022-11-16T19:14:01.024Z,11.73
2022-11-16T19:16:28.743Z,13.07
2022-11-16T19:18:56.245Z,12.27
2022-11-16T19:21:23.953Z,13.10
2022-11-16T19:23:54.367Z,11.83
2022-11-16T19:26:27.255Z,12.40
2022-11-16T19:28:55.262Z,12.57
2022-11-16T19:31:29.951Z,11.20
2022-11-16T19:34:05.482Z,12.73
2022-11-16T19:36:35.652Z,11.07
2022-11-16T19:39:04.442Z,11.40
2022-11-16T19:41:31.458Z,12.17
2022-11-16T19:44:01.647Z,12.13
2022-11-16T19:46:34.117Z,11.47
2022-11-16T19:49:01.390Z,13.43
2022-11-16T19:51:33.555Z,11.23
2022-11-16T19:54:02.496Z,11.80
2022-11-16T19:56:30.419Z,12.73
2022-11-16T19:58:58.109Z,13.00
2022-11-16T20:01:29.557Z,13.23
2022-11-16T20:03:59.957Z,13.50
2022-11-16T20:06:30.555Z,13.70
2022-11-16T20:09:02.287Z,14.30
2022-11-16T20:11:32.013Z,14.77
2022-11-16T20:13:59.582Z,14.30
2022-11-16T20:16:38.167Z,15.13
2022-11-16T20:19:08.002Z,13.70
2022-11-16T20:21:38.537Z,14.03
2022-11-16T20:24:09.578Z,13.37
2022-11-16T20:26:41.693Z,13.50
2022-11-16T20:29:12.510Z,12.97
2022-11-16T20:31:42.886Z,13.60
2022-11-16T20:34:17.063Z,12.87
2022-11-16T20:36:47.159Z,13.63
2022-11-16T20:39:17.511Z,12.27
2022-11-16T20:41:44.697Z,12.83
2022-11-16T20:44:17.899Z,14.30
2022-11-16T20:46:45.336Z,14.77
2022-11-16T20:49:12.931Z,16.17
2022-11-16T20:51:39.963Z,14.77
2022-11-16T20:54:07.308Z,14.23
2022-11-16T20:56:34.694Z,15.60
2022-11-16T20:59:01.941Z,16.00
2022-11-16T21:01:31.729Z,15.23
2022-11-16T21:04:05.168Z,16.30
2022-11-16T21:06:33.636Z,16.40
2022-11-16T21:09:01.177Z,18.27
2022-11-16T21:11:51.342Z,19.20
2022-11-16T21:14:20.063Z,17.47
2022-11-16T21:16:47.043Z,20.23
2022-11-16T21:19:14.730Z,20.90
2022-11-16T21:21:41.847Z,20.70
2022-11-16T21:24:10.444Z,20.77
2022-11-16T21:26:38.557Z,18.07
2022-11-16T21:29:05.921Z,19.97
2022-11-16T21:31:36.248Z,19.90
2022-11-16T21:34:03.643Z,19.13
2022-11-16T21:36:32.772Z,20.00
2022-11-16T21:39:00.463Z,19.00
2022-11-16T21:41:28.490Z,19.70
2022-11-16T21:43:56.424Z,16.90
2022-11-16T21:46:26.044Z,18.30
2022-11-16T21:48:55.461Z,18.90
2022-11-16T21:51:26.447Z,19.60
2022-11-16T21:53:54.267Z,19.40
2022-11-16T21:56:24.719Z,21.80
2022-11-16T21:58:53.239Z,19.17
2022-11-16T22:01:22.035Z,20.70
2022-11-16T22:04:09.151Z,20.50
2022-11-16T22:06:54.817Z,19.33
2022-11-16T22:09:22.243Z,19.90
2022-11-16T22:11:49.287Z,19.97
2022-11-16T22:14:16.342Z,19.20
2022-11-16T22:16:43.391Z,20.30
2022-11-16T22:19:10.358Z,20.97
2022-11-16T22:21:37.369Z,21.93
2022-11-16T22:24:04.456Z,17.67
2022-11-16T22:26:31.655Z,15.50
2022-11-16T22:28:58.736Z,16.80
2022-11-16T22:31:25.818Z,16.20
2022-11-16T22:33:53.891Z,16.63
2022-11-16T22:36:21.062Z,16.30
2022-11-16T22:38:48.001Z,17.53
2022-11-16T22:41:15.057Z,16.47
2022-11-16T22:43:42.025Z,16.17
2022-11-16T22:46:11.089Z,16.23
2022-11-16T22:48:40.223Z,16.27
2022-11-16T22:51:33.162Z,16.80
2022-11-16T22:54:03.931Z,16.93
2022-11-16T22:56:32.958Z,15.73
2022-11-16T22:59:02.422Z,16.93
2022-11-16T23:01:29.468Z,16.80
2022-11-16T23:03:56.513Z,16.53
2022-11-16T23:06:23.755Z,17.07
2022-11-16T23:08:51.336Z,18.33
2022-11-16T23:11:40.192Z,15.43
2022-11-16T23:14:30.008Z,18.73
2022-11-16T23:16:57.629Z,19.00
2022-11-16T23:19:44.122Z,16.83
2022-11-16T23:22:36.770Z,19.07
2022-11-16T23:25:24.547Z,18.87
2022-11-16T23:28:08.854Z,18.10
2022-11-16T23:30:36.979Z,19.70
2022-11-16T23:33:04.774Z,19.50
2022-11-16T23:35:31.850Z,20.17
2022-11-16T23:38:03.390Z,19.47
2022-11-16T23:40:37.229Z,19.83
2022-11-16T23:43:44.803Z,18.80
2022-11-16T23:46:11.693Z,21.03
2022-11-16T23:48:38.662Z,19.60
2022-11-16T23:51:05.783Z,22.67
2022-11-16T23:53:32.885Z,21.73
2022-11-16T23:56:06.010Z,19.17
2022-11-16T23:58:33.280Z,19.43
